createdAt,value
2022-08-22T00:02:51.574Z,1014.9
2022-08-22T00:04:27.455Z,1014.9
2022-08-22T00:09:47.221Z,1015
2022-08-22T00:15:42.789Z,1014.9
2022-08-22T00:21:01.021Z,1015.1
2022-08-22T00:26:45.212Z,1015.2
2022-08-22T00:32:20.444Z,1015
2022-08-22T00:37:55.547Z,1015.1
2022-08-22T00:43:29.131Z,1015.8
2022-08-22T00:48:55.355Z,1015.8
2022-08-22T00:54:26.916Z,1015.7
2022-08-22T01:00:23.758Z,1015.4
2022-08-22T01:05:43.881Z,1015.3
2022-08-22T01:11:19.271Z,1015.4
2022-08-22T01:16:49.029Z,1015.3
2022-08-22T01:22:46.549Z,1014.8
2022-08-22T01:28:22.836Z,1015.5
2022-08-22T01:33:56.663Z,1016
2022-08-22T01:39:21.564Z,1016.2
2022-08-22T01:45:08.553Z,1016.2
2022-08-22T01:50:42.381Z,1016.2
2022-08-22T01:56:20.040Z,1016.1
2022-08-22T02:01:47.880Z,1016.2
2022-08-22T02:07:10.318Z,1016.4
2022-08-22T02:13:01.469Z,1016.3
2022-08-22T02:18:26.895Z,1016.3
2022-08-22T02:23:52.308Z,1016.3
2022-08-22T02:29:22.607Z,1016.5
2022-08-22T02:35:20.397Z,1016.6
2022-08-22T02:40:55.043Z,1016.4
2022-08-22T02:46:28.900Z,1016.4
2022-08-22T02:51:49.067Z,1016.2
2022-08-22T02:57:39.900Z,1016.2
2022-08-22T03:03:13.161Z,1016.2
2022-08-22T03:08:47.524Z,1016.2
2022-08-22T03:14:09.175Z,1016.2
2022-08-22T03:19:55.784Z,1016.1
2022-08-22T03:25:29.787Z,1016.3
2022-08-22T03:31:00.177Z,1016.3
2022-08-22T03:36:20.878Z,1016.2
2022-08-22T03:42:03.163Z,1016.2
2022-08-22T03:47:47.652Z,1016.1
2022-08-22T03:53:18.923Z,1016.1
2022-08-22T03:58:35.441Z,1016.2
2022-08-22T04:04:15.252Z,1016.1
2022-08-22T04:10:03.038Z,1016.2
2022-08-22T04:15:17.136Z,1016.2
2022-08-22T04:21:13.828Z,1016.3
2022-08-22T04:26:48.044Z,1016.4
2022-08-22T04:32:14.474Z,1016.5
2022-08-22T04:37:48.509Z,1016.4
2022-08-22T04:43:07.826Z,1016.3
2022-08-22T04:48:59.487Z,1016.4
2022-08-22T04:54:33.191Z,1016.5
2022-08-22T05:00:13.913Z,1016.6
2022-08-22T05:05:40.278Z,1016.7
2022-08-22T05:11:03.723Z,1016.7
2022-08-22T05:16:50.778Z,1016.7
2022-08-22T05:22:32.879Z,1016.8
2022-08-22T05:27:46.098Z,1016.7
2022-08-22T05:33:27.838Z,1016.8
2022-08-22T05:38:56.615Z,1016.5
2022-08-22T05:44:43.417Z,1016.5
2022-08-22T05:50:19.723Z,1016.6
2022-08-22T05:55:44.874Z,1016.6
2022-08-22T06:01:31.793Z,1016.7
2022-08-22T06:07:11.087Z,1016.7
2022-08-22T06:12:49.643Z,1016.8
2022-08-22T06:18:22.698Z,1016.8
2022-08-22T06:23:51.753Z,1017
2022-08-22T06:29:27.409Z,1016.9
2022-08-22T06:35:04.293Z,1017
2022-08-22T06:40:32.995Z,1017
2022-08-22T06:46:17.028Z,1016.8
2022-08-22T06:51:36.540Z,1016.6
2022-08-22T06:57:08.474Z,1016.5
2022-08-22T07:03:07.868Z,1016.4
2022-08-22T07:08:21.489Z,1016.1
2022-08-22T07:14:01.384Z,1015.9
2022-08-22T07:19:57.009Z,1015.9
2022-08-22T07:25:21.263Z,1015.9
2022-08-22T07:31:11.928Z,1015.8
2022-08-22T07:36:42.424Z,1015.6
2022-08-22T07:42:09.417Z,1015.6
2022-08-22T07:47:40.574Z,1015.6
2022-08-22T07:53:23.056Z,1015.5
2022-08-22T07:59:09.976Z,1015.5
2022-08-22T08:04:45.611Z,1015.5
2022-08-22T08:10:28.987Z,1015.4
2022-08-22T08:15:58.596Z,1015.4
2022-08-22T08:21:46.555Z,1015.3
2022-08-22T08:27:16.785Z,1015.2
2022-08-22T08:32:43.080Z,1015.2
2022-08-22T08:38:32.305Z,1015.2
2022-08-22T08:44:06.520Z,1015.1
2022-08-22T08:49:52.399Z,1015
2022-08-22T08:55:20.101Z,1015
2022-08-22T09:00:43.722Z,1015
2022-08-22T09:06:24.471Z,1015.2
2022-08-22T09:12:08.796Z,1014.8
2022-08-22T09:17:32.906Z,1014.7
2022-08-22T09:23:18.569Z,1014.7
2022-08-22T09:29:12.982Z,1014.6
2022-08-22T09:34:38.728Z,1014.6
2022-08-22T09:45:56.333Z,1014.4
2022-08-22T09:51:33.747Z,1014.5
2022-08-22T09:57:22.992Z,1014.6
2022-08-22T10:02:49.666Z,1014.3
2022-08-22T10:08:31.344Z,1014.4
2022-08-22T10:14:04.310Z,1014.4
2022-08-22T10:19:55.382Z,1014.3
2022-08-22T10:25:29.040Z,1014.1
2022-08-22T10:31:12.368Z,1014.1
2022-08-22T10:36:35.569Z,1013.9
2022-08-22T10:42:13.305Z,1014
2022-08-22T10:48:00.695Z,1014
2022-08-22T10:53:35.451Z,1013.9
2022-08-22T10:59:07.965Z,1013.8
2022-08-22T11:04:44.016Z,1013.8
2022-08-22T11:10:37.777Z,1013.7
2022-08-22T11:15:59.560Z,1013.7
2022-08-22T11:21:59.477Z,1013.4
2022-08-22T11:27:40.948Z,1013.4
2022-08-22T11:33:02.983Z,1013.3
2022-08-22T11:38:36.850Z,1013.3
2022-08-22T11:44:20.980Z,1013.2
2022-08-22T11:49:53.317Z,1013.2
2022-08-22T11:55:50.740Z,1013.3
2022-08-22T12:01:18.471Z,1013.1
2022-08-22T12:07:08.895Z,1013
2022-08-22T12:12:39.642Z,1013
2022-08-22T12:18:34.515Z,1013
2022-08-22T12:23:50.227Z,1013
2022-08-22T12:29:33.736Z,1013
2022-08-22T12:35:15.762Z,1013
2022-08-22T12:40:55.874Z,1012.9
2022-08-22T12:46:54.150Z,1012.8
2022-08-22T12:52:16.230Z,1012.8
2022-08-22T12:58:12.274Z,1012.8
2022-08-22T13:03:44.264Z,1012.6
2022-08-22T13:09:12.522Z,1012.7
2022-08-22T13:14:58.727Z,1012.5
2022-08-22T13:20:30.032Z,1012.4
2022-08-22T13:26:09.873Z,1012.5
2022-08-22T13:31:50.884Z,1012.5
2022-08-22T13:37:50.026Z,1012.6
2022-08-22T13:43:06.609Z,1012.5
2022-08-22T13:49:00.686Z,1012.5
2022-08-22T13:54:47.457Z,1012.4
2022-08-22T14:00:29.460Z,1012.4
2022-08-22T14:06:35.231Z,1012.3
2022-08-22T14:11:37.006Z,1012.2
2022-08-22T14:17:28.014Z,1012.3
2022-08-22T14:22:58.121Z,1012.1
2022-08-22T14:28:42.849Z,1012.2
2022-08-22T14:34:14.946Z,1012.1
2022-08-22T14:39:45.017Z,1012.2
2022-08-22T14:45:33.875Z,1012.3
2022-08-22T14:51:01.276Z,1012.1
2022-08-22T14:56:45.232Z,1012.2
2022-08-22T15:02:27.747Z,1012.1
2022-08-22T15:08:14.964Z,1011.9
2022-08-22T15:13:42.239Z,1011.9
2022-08-22T15:19:22.374Z,1011.9
2022-08-22T15:25:22.305Z,1011.9
2022-08-22T15:30:54.016Z,1011.8
2022-08-22T15:36:40.303Z,1011.9
2022-08-22T15:42:20.654Z,1011.8
2022-08-22T15:47:34.893Z,1011.9
2022-08-22T15:53:27.209Z,1011.9
2022-08-22T15:59:08.207Z,1011.9
2022-08-22T16:04:34.178Z,1011.8
2022-08-22T16:10:15.535Z,1011.9
2022-08-22T16:15:43.510Z,1012
2022-08-22T16:21:21.805Z,1011.9
2022-08-22T16:27:13.784Z,1011.9
2022-08-22T16:32:42.730Z,1011.9
2022-08-22T16:43:52.781Z,1011.9
2022-08-22T16:49:50.362Z,1012
2022-08-22T16:55:05.856Z,1012.1
2022-08-22T17:00:49.902Z,1012
2022-08-22T17:06:31.243Z,1012
2022-08-22T17:11:55.884Z,1012.1
2022-08-22T17:17:44.568Z,1012.2
2022-08-22T17:23:23.244Z,1012.3
2022-08-22T17:28:48.330Z,1012.4
2022-08-22T17:34:42.237Z,1012.3
2022-08-22T17:40:14.745Z,1012.3
2022-08-22T17:45:57.717Z,1012.4
2022-08-22T17:51:28.709Z,1012.5
2022-08-22T17:56:54.018Z,1012.6
2022-08-22T18:02:47.501Z,1012.6
2022-08-22T18:13:58.855Z,1012.9
2022-08-22T18:19:41.622Z,1013
2022-08-22T18:24:52.479Z,1013.3
2022-08-22T18:30:51.150Z,1013.4
2022-08-22T18:36:04.842Z,1013.6
2022-08-22T18:41:59.274Z,1013.7
2022-08-22T18:47:22.921Z,1013.7
2022-08-22T18:52:48.687Z,1014
2022-08-22T18:58:34.152Z,1014.1
2022-08-22T19:03:56.928Z,1014
2022-08-22T19:09:31.633Z,1013.9
2022-08-22T19:15:10.428Z,1014
2022-08-22T19:20:46.891Z,1014.3
2022-08-22T19:26:26.933Z,1014.4
2022-08-22T19:32:19.527Z,1014.2
2022-08-22T19:37:37.292Z,1014.2
2022-08-22T19:43:19.202Z,1014.3
2022-08-22T19:48:48.567Z,1014.3
2022-08-22T19:54:35.841Z,1014.4
2022-08-22T19:59:53.397Z,1014.4
2022-08-22T20:05:53.650Z,1014.5
2022-08-22T20:11:03.013Z,1014.4
2022-08-22T20:17:03.191Z,1014.6
2022-08-22T20:22:25.135Z,1014.5
2022-08-22T20:28:00.325Z,1014.5
2022-08-22T20:33:42.578Z,1014.6
2022-08-22T20:39:09.594Z,1014.5
2022-08-22T20:44:57.142Z,1014.6
2022-08-22T20:50:13.998Z,1014.6
2022-08-22T20:56:08.746Z,1014.6
2022-08-22T21:01:38.042Z,1014.6
2022-08-22T21:07:02.751Z,1014.7
2022-08-22T21:12:44.346Z,1014.6
2022-08-22T21:18:29.192Z,1014.7
2022-08-22T21:23:52.610Z,1014.7
2022-08-22T21:29:39.057Z,1014.6
2022-08-22T21:35:04.758Z,1014.7
2022-08-22T21:40:46.659Z,1014.9
2022-08-22T21:46:27.013Z,1015.2
2022-08-22T21:51:58.820Z,1015.4
2022-08-22T21:57:46.148Z,1015.4
2022-08-22T22:03:11.415Z,1015.5
2022-08-22T22:08:31.349Z,1015.3
2022-08-22T22:14:12.139Z,1015.4
2022-08-22T22:20:07.011Z,1015.5
2022-08-22T22:25:39.479Z,1015.6
2022-08-22T22:31:00.227Z,1015.8
2022-08-22T22:36:44.005Z,1015.8
2022-08-22T22:42:18.883Z,1015.9
2022-08-22T22:47:48.731Z,1015.8
2022-08-22T22:53:28.512Z,1015.9
2022-08-22T22:58:59.184Z,1015.8
2022-08-22T23:04:17.988Z,1016
2022-08-22T23:09:53.161Z,1016.3
2022-08-22T23:15:31.488Z,1016.6
2022-08-22T23:21:17.135Z,1016.4
2022-08-22T23:26:50.960Z,1016.6
2022-08-22T23:32:31.043Z,1016.5
2022-08-22T23:38:03.106Z,1016.1
2022-08-22T23:43:26.128Z,1016.4
2022-08-22T23:49:04.447Z,1016.4
2022-08-22T23:54:30.653Z,1016.3
